sensor_id;sensor_type;location;lat;lon;timestamp;pressure;altitude;pressure_sealevel;temperature;humidity
18755;BME280;35061;47.664;9.166;2023-04-25T00:02:01;101021.55;;;9.56;64.45
18755;BME280;35061;47.664;9.166;2023-04-25T00:04:29;101020.77;;;9.55;64.52
18755;BME280;35061;47.664;9.166;2023-04-25T00:06:57;101018.88;;;9.52;64.41
18755;BME280;35061;47.664;9.166;2023-04-25T00:09:29;101022.87;;;9.45;64.86
18755;BME280;35061;47.664;9.166;2023-04-25T00:11:57;101030.98;;;9.47;64.64
18755;BME280;35061;47.664;9.166;2023-04-25T00:14:25;101032.71;;;9.44;64.67
18755;BME280;35061;47.664;9.166;2023-04-25T00:16:53;101039.70;;;9.43;64.79
18755;BME280;35061;47.664;9.166;2023-04-25T00:19:21;101036.21;;;9.39;65.29
18755;BME280;35061;47.664;9.166;2023-04-25T00:21:49;101024.47;;;9.37;65.40
18755;BME280;35061;47.664;9.166;2023-04-25T00:24:17;101024.47;;;9.37;65.55
18755;BME280;35061;47.664;9.166;2023-04-25T00:26:45;101021.30;;;9.35;65.79
18755;BME280;35061;47.664;9.166;2023-04-25T00:29:13;101023.55;;;9.31;66.05
18755;BME280;35061;47.664;9.166;2023-04-25T00:31:41;101014.33;;;9.27;66.14
18755;BME280;35061;47.664;9.166;2023-04-25T00:34:09;101018.62;;;9.22;66.53
18755;BME280;35061;47.664;9.166;2023-04-25T00:36:37;101020.05;;;9.17;66.88
18755;BME280;35061;47.664;9.166;2023-04-25T00:39:05;101017.70;;;9.16;66.68
18755;BME280;35061;47.664;9.166;2023-04-25T00:41:34;101016.13;;;9.15;66.68
18755;BME280;35061;47.664;9.166;2023-04-25T00:44:03;101014.04;;;9.06;68.54
18755;BME280;35061;47.664;9.166;2023-04-25T00:46:32;101019.47;;;9.04;67.48
18755;BME280;35061;47.664;9.166;2023-04-25T00:49:00;101017.86;;;9.03;67.68
18755;BME280;35061;47.664;9.166;2023-04-25T00:51:28;101015.18;;;8.99;67.57
18755;BME280;35061;47.664;9.166;2023-04-25T00:53:57;101003.45;;;8.97;67.65
18755;BME280;35061;47.664;9.166;2023-04-25T00:56:25;101009.63;;;8.96;67.61
18755;BME280;35061;47.664;9.166;2023-04-25T00:58:54;101010.57;;;8.92;68.05
18755;BME280;35061;47.664;9.166;2023-04-25T01:01:24;101006.29;;;8.88;67.57
18755;BME280;35061;47.664;9.166;2023-04-25T01:03:53;100996.97;;;8.87;67.37
18755;BME280;35061;47.664;9.166;2023-04-25T01:06:22;100989.97;;;8.88;67.24
18755;BME280;35061;47.664;9.166;2023-04-25T01:08:51;100994.41;;;8.89;67.08
18755;BME280;35061;47.664;9.166;2023-04-25T01:11:19;100994.41;;;8.89;66.82
18755;BME280;35061;47.664;9.166;2023-04-25T01:13:47;100994.88;;;8.88;66.69
18755;BME280;35061;47.664;9.166;2023-04-25T01:16:15;100997.42;;;8.86;66.51
18755;BME280;35061;47.664;9.166;2023-04-25T01:18:45;100997.72;;;8.88;66.46
18755;BME280;35061;47.664;9.166;2023-04-25T01:21:13;100986.47;;;8.84;66.61
18755;BME280;35061;47.664;9.166;2023-04-25T01:23:42;100987.26;;;8.85;66.65
18755;BME280;35061;47.664;9.166;2023-04-25T01:26:10;100984.12;;;8.83;66.72
18755;BME280;35061;47.664;9.166;2023-04-25T01:28:39;100983.46;;;8.78;66.90
18755;BME280;35061;47.664;9.166;2023-04-25T01:31:11;100992.03;;;8.78;66.85
18755;BME280;35061;47.664;9.166;2023-04-25T01:33:40;100993.30;;;8.77;66.97
18755;BME280;35061;47.664;9.166;2023-04-25T01:36:08;100992.03;;;8.69;67.70
18755;BME280;35061;47.664;9.166;2023-04-25T01:38:36;101005.21;;;8.67;67.68
18755;BME280;35061;47.664;9.166;2023-04-25T01:41:04;101002.98;;;8.61;68.00
18755;BME280;35061;47.664;9.166;2023-04-25T01:43:33;101005.50;;;8.59;68.12
18755;BME280;35061;47.664;9.166;2023-04-25T01:46:01;100978.66;;;8.47;69.92
18755;BME280;35061;47.664;9.166;2023-04-25T01:48:29;100991.18;;;8.31;73.22
18755;BME280;35061;47.664;9.166;2023-04-25T01:50:57;101004.00;;;8.17;72.76
18755;BME280;35061;47.664;9.166;2023-04-25T01:53:26;101002.20;;;8.01;74.31
18755;BME280;35061;47.664;9.166;2023-04-25T01:55:54;100996.15;;;7.90;74.49
18755;BME280;35061;47.664;9.166;2023-04-25T01:58:22;101001.05;;;7.80;75.30
18755;BME280;35061;47.664;9.166;2023-04-25T02:00:50;100994.84;;;7.72;75.09
18755;BME280;35061;47.664;9.166;2023-04-25T02:03:18;100990.55;;;7.67;75.31
18755;BME280;35061;47.664;9.166;2023-04-25T02:05:46;100975.32;;;7.61;75.59
18755;BME280;35061;47.664;9.166;2023-04-25T02:08:14;100963.25;;;7.57;75.92
18755;BME280;35061;47.664;9.166;2023-04-25T02:10:42;100968.78;;;7.51;76.31
18755;BME280;35061;47.664;9.166;2023-04-25T02:13:10;100969.23;;;7.50;77.33
18755;BME280;35061;47.664;9.166;2023-04-25T02:15:38;100971.63;;;7.51;78.01
18755;BME280;35061;47.664;9.166;2023-04-25T02:18:06;100966.39;;;7.50;78.46
18755;BME280;35061;47.664;9.166;2023-04-25T02:20:34;100979.87;;;7.49;78.68
18755;BME280;35061;47.664;9.166;2023-04-25T02:23:02;100967.66;;;7.49;79.05
18755;BME280;35061;47.664;9.166;2023-04-25T02:25:30;100975.09;;;7.46;79.53
18755;BME280;35061;47.664;9.166;2023-04-25T02:27:58;100973.20;;;7.43;79.40
18755;BME280;35061;47.664;9.166;2023-04-25T02:30:26;100978.07;;;7.43;79.62
18755;BME280;35061;47.664;9.166;2023-04-25T02:32:54;100980.29;;;7.38;79.66
18755;BME280;35061;47.664;9.166;2023-04-25T02:35:22;100971.40;;;7.36;79.85
18755;BME280;35061;47.664;9.166;2023-04-25T02:37:50;100975.19;;;7.33;80.01
18755;BME280;35061;47.664;9.166;2023-04-25T02:40:18;100976.30;;;7.36;80.50
18755;BME280;35061;47.664;9.166;2023-04-25T02:42:46;100973.00;;;7.37;80.24
18755;BME280;35061;47.664;9.166;2023-04-25T02:45:14;100965.84;;;7.33;80.14
18755;BME280;35061;47.664;9.166;2023-04-25T02:47:42;100968.52;;;7.27;80.52
18755;BME280;35061;47.664;9.166;2023-04-25T02:50:10;100965.67;;;7.27;80.45
18755;BME280;35061;47.664;9.166;2023-04-25T02:52:39;100966.46;;;7.28;80.58
18755;BME280;35061;47.664;9.166;2023-04-25T02:55:07;100972.61;;;7.26;80.60
18755;BME280;35061;47.664;9.166;2023-04-25T02:57:35;100976.73;;;7.25;80.33
18755;BME280;35061;47.664;9.166;2023-04-25T03:00:03;100968.98;;;7.25;80.42
18755;BME280;35061;47.664;9.166;2023-04-25T03:02:32;100964.53;;;7.24;80.25
18755;BME280;35061;47.664;9.166;2023-04-25T03:05:00;100967.38;;;7.24;79.76
18755;BME280;35061;47.664;9.166;2023-04-25T03:07:28;100968.65;;;7.23;79.69
18755;BME280;35061;47.664;9.166;2023-04-25T03:09:56;100973.88;;;7.25;80.00
18755;BME280;35061;47.664;9.166;2023-04-25T03:12:24;100964.86;;;7.26;80.14
18755;BME280;35061;47.664;9.166;2023-04-25T03:14:52;100969.30;;;7.28;80.00
18755;BME280;35061;47.664;9.166;2023-04-25T03:17:20;100962.34;;;7.29;79.58
18755;BME280;35061;47.664;9.166;2023-04-25T03:19:48;100962.01;;;7.26;79.53
18755;BME280;35061;47.664;9.166;2023-04-25T03:22:16;100966.46;;;7.28;79.37
18755;BME280;35061;47.664;9.166;2023-04-25T03:24:44;100957.92;;;7.28;79.20
18755;BME280;35061;47.664;9.166;2023-04-25T03:27:12;100957.11;;;7.27;79.03
18755;BME280;35061;47.664;9.166;2023-04-25T03:29:40;100966.13;;;7.25;79.40
18755;BME280;35061;47.664;9.166;2023-04-25T03:32:08;100959.66;;;7.25;79.00
18755;BME280;35061;47.664;9.166;2023-04-25T03:34:36;100959.79;;;7.21;79.29
18755;BME280;35061;47.664;9.166;2023-04-25T03:37:04;100955.66;;;7.22;79.63
18755;BME280;35061;47.664;9.166;2023-04-25T03:39:32;100960.28;;;7.29;79.34
18755;BME280;35061;47.664;9.166;2023-04-25T03:42:00;100959.82;;;7.31;79.27
18755;BME280;35061;47.664;9.166;2023-04-25T03:44:28;100959.69;;;7.34;79.03
18755;BME280;35061;47.664;9.166;2023-04-25T03:46:56;100963.32;;;7.35;78.67
18755;BME280;35061;47.664;9.166;2023-04-25T03:49:24;100967.73;;;7.36;78.62
18755;BME280;35061;47.664;9.166;2023-04-25T03:51:52;100960.34;;;7.38;78.41
18755;BME280;35061;47.664;9.166;2023-04-25T03:54:20;100954.95;;;7.40;78.24
18755;BME280;35061;47.664;9.166;2023-04-25T03:56:48;100958.28;;;7.39;78.14
18755;BME280;35061;47.664;9.166;2023-04-25T03:59:16;100956.23;;;7.39;77.98
18755;BME280;35061;47.664;9.166;2023-04-25T04:01:44;100943.70;;;7.37;77.76
18755;BME280;35061;47.664;9.166;2023-04-25T04:04:12;100943.38;;;7.35;77.68
18755;BME280;35061;47.664;9.166;2023-04-25T04:06:40;100946.71;;;7.33;77.45
18755;BME280;35061;47.664;9.166;2023-04-25T04:09:09;100947.95;;;7.32;77.52
18755;BME280;35061;47.664;9.166;2023-04-25T04:11:39;100942.26;;;7.32;77.42
18755;BME280;35061;47.664;9.166;2023-04-25T04:14:07;100938.76;;;7.28;77.44
18755;BME280;35061;47.664;9.166;2023-04-25T04:16:35;100936.87;;;7.25;77.66
18755;BME280;35061;47.664;9.166;2023-04-25T04:19:03;100946.67;;;7.24;77.65
18755;BME280;35061;47.664;9.166;2023-04-25T04:21:31;100941.87;;;7.21;77.72
18755;BME280;35061;47.664;9.166;2023-04-25T04:24:01;100945.66;;;7.18;77.67
18755;BME280;35061;47.664;9.166;2023-04-25T04:26:29;100941.70;;;7.15;77.74
18755;BME280;35061;47.664;9.166;2023-04-25T04:28:59;100933.27;;;7.11;77.53
18755;BME280;35061;47.664;9.166;2023-04-25T04:31:27;100932.98;;;7.09;77.44
18755;BME280;35061;47.664;9.166;2023-04-25T04:33:55;100933.43;;;7.08;77.38
18755;BME280;35061;47.664;9.166;2023-04-25T04:36:23;100939.58;;;7.06;77.85
18755;BME280;35061;47.664;9.166;2023-04-25T04:38:52;100934.22;;;7.08;77.71
18755;BME280;35061;47.664;9.166;2023-04-25T04:41:20;100940.73;;;7.09;77.75
18755;BME280;35061;47.664;9.166;2023-04-25T04:43:48;100935.82;;;7.09;77.59
18755;BME280;35061;47.664;9.166;2023-04-25T04:46:17;100926.92;;;7.07;77.64
18755;BME280;35061;47.664;9.166;2023-04-25T04:48:46;100935.49;;;7.07;77.46
18755;BME280;35061;47.664;9.166;2023-04-25T04:51:13;100938.20;;;7.11;77.59
18755;BME280;35061;47.664;9.166;2023-04-25T04:53:41;100933.62;;;7.14;77.40
18755;BME280;35061;47.664;9.166;2023-04-25T04:56:09;100931.44;;;7.18;77.14
18755;BME280;35061;47.664;9.166;2023-04-25T04:58:37;100933.20;;;7.24;77.22
18755;BME280;35061;47.664;9.166;2023-04-25T05:01:05;100933.07;;;7.28;76.97
18755;BME280;35061;47.664;9.166;2023-04-25T05:03:33;100925.16;;;7.32;76.93
18755;BME280;35061;47.664;9.166;2023-04-25T05:06:02;100936.27;;;7.39;76.85
18755;BME280;35061;47.664;9.166;2023-04-25T05:08:30;100935.20;;;7.46;76.63
18755;BME280;35061;47.664;9.166;2023-04-25T05:10:57;100929.21;;;7.53;76.59
18755;BME280;35061;47.664;9.166;2023-04-25T05:13:25;100928.13;;;7.60;76.60
18755;BME280;35061;47.664;9.166;2023-04-25T05:15:53;100930.36;;;7.65;76.39
18755;BME280;35061;47.664;9.166;2023-04-25T05:18:21;100935.13;;;7.68;76.20
18755;BME280;35061;47.664;9.166;2023-04-25T05:20:49;100932.91;;;7.73;75.95
18755;BME280;35061;47.664;9.166;2023-04-25T05:23:17;100934.02;;;7.75;75.87
18755;BME280;35061;47.664;9.166;2023-04-25T05:25:45;100921.66;;;7.78;75.76
18755;BME280;35061;47.664;9.166;2023-04-25T05:28:13;100932.94;;;7.82;75.76
18755;BME280;35061;47.664;9.166;2023-04-25T05:30:41;100934.67;;;7.89;75.63
18755;BME280;35061;47.664;9.166;2023-04-25T05:33:09;100925.98;;;7.92;75.33
18755;BME280;35061;47.664;9.166;2023-04-25T05:35:37;100933.43;;;7.99;75.12
18755;BME280;35061;47.664;9.166;2023-04-25T05:38:04;100933.59;;;8.05;75.12
18755;BME280;35061;47.664;9.166;2023-04-25T05:40:32;100941.54;;;8.10;75.00
18755;BME280;35061;47.664;9.166;2023-04-25T05:43:00;100935.52;;;8.17;74.84
18755;BME280;35061;47.664;9.166;2023-04-25T05:45:29;100938.08;;;8.24;74.70
18755;BME280;35061;47.664;9.166;2023-04-25T05:47:57;100940.30;;;8.30;74.47
18755;BME280;35061;47.664;9.166;2023-04-25T05:50:25;100934.77;;;8.35;74.41
18755;BME280;35061;47.664;9.166;2023-04-25T05:52:53;100934.41;;;8.43;74.31
18755;BME280;35061;47.664;9.166;2023-04-25T05:55:20;100929.38;;;8.47;74.53
18755;BME280;35061;47.664;9.166;2023-04-25T05:57:48;100920.19;;;8.52;74.46
18755;BME280;35061;47.664;9.166;2023-04-25T06:00:17;100924.77;;;8.59;74.45
18755;BME280;35061;47.664;9.166;2023-04-25T06:02:46;100925.59;;;8.69;74.34
18755;BME280;35061;47.664;9.166;2023-04-25T06:05:14;100922.70;;;8.78;74.26
18755;BME280;35061;47.664;9.166;2023-04-25T06:07:43;100922.70;;;8.87;74.18
18755;BME280;35061;47.664;9.166;2023-04-25T06:10:11;100925.35;;;9.00;74.21
18755;BME280;35061;47.664;9.166;2023-04-25T06:12:39;100921.49;;;9.13;74.02
18755;BME280;35061;47.664;9.166;2023-04-25T06:15:07;100930.84;;;9.23;73.56
18755;BME280;35061;47.664;9.166;2023-04-25T06:17:53;100923.82;;;9.33;73.40
18755;BME280;35061;47.664;9.166;2023-04-25T06:20:21;100919.96;;;9.45;73.16
18755;BME280;35061;47.664;9.166;2023-04-25T06:22:51;100925.16;;;9.56;72.74
18755;BME280;35061;47.664;9.166;2023-04-25T06:25:20;100921.46;;;9.65;72.53
18755;BME280;35061;47.664;9.166;2023-04-25T06:27:48;100916.52;;;9.66;71.88
18755;BME280;35061;47.664;9.166;2023-04-25T06:30:16;100918.72;;;9.71;71.39
18755;BME280;35061;47.664;9.166;2023-04-25T06:32:49;100911.85;;;9.77;70.47
18755;BME280;35061;47.664;9.166;2023-04-25T06:35:17;100913.84;;;9.86;69.47
18755;BME280;35061;47.664;9.166;2023-04-25T06:37:45;100915.09;;;9.95;69.58
18755;BME280;35061;47.664;9.166;2023-04-25T06:40:13;100916.88;;;10.07;69.63
18755;BME280;35061;47.664;9.166;2023-04-25T06:42:42;100908.35;;;10.22;69.55
18755;BME280;35061;47.664;9.166;2023-04-25T06:45:10;100916.39;;;10.33;69.12
18755;BME280;35061;47.664;9.166;2023-04-25T06:47:38;100920.52;;;10.41;69.06
18755;BME280;35061;47.664;9.166;2023-04-25T06:50:06;100918.06;;;10.49;68.81
18755;BME280;35061;47.664;9.166;2023-04-25T06:52:34;100905.31;;;10.50;68.51
18755;BME280;35061;47.664;9.166;2023-04-25T06:55:03;100903.05;;;10.54;68.32
18755;BME280;35061;47.664;9.166;2023-04-25T06:57:32;100904.43;;;10.59;68.07
18755;BME280;35061;47.664;9.166;2023-04-25T07:00:00;100906.81;;;10.60;67.81
18755;BME280;35061;47.664;9.166;2023-04-25T07:02:28;100910.09;;;10.68;67.72
18755;BME280;35061;47.664;9.166;2023-04-25T07:04:56;100906.91;;;10.66;67.85
18755;BME280;35061;47.664;9.166;2023-04-25T07:07:27;100909.59;;;10.70;67.77
18755;BME280;35061;47.664;9.166;2023-04-25T07:09:55;100909.59;;;10.70;67.87
18755;BME280;35061;47.664;9.166;2023-04-25T07:12:23;100919.56;;;10.74;68.08
18755;BME280;35061;47.664;9.166;2023-04-25T07:14:51;100920.88;;;10.73;68.28
18755;BME280;35061;47.664;9.166;2023-04-25T07:17:19;100921.82;;;10.70;68.52
18755;BME280;35061;47.664;9.166;2023-04-25T07:19:47;100923.82;;;10.64;68.70
18755;BME280;35061;47.664;9.166;2023-04-25T07:22:15;100931.50;;;10.58;69.36
18755;BME280;35061;47.664;9.166;2023-04-25T07:24:43;100954.00;;;10.50;69.62
18755;BME280;35061;47.664;9.166;2023-04-25T07:27:15;100959.69;;;10.26;70.26
18755;BME280;35061;47.664;9.166;2023-04-25T07:29:43;100966.03;;;9.81;70.56
18755;BME280;35061;47.664;9.166;2023-04-25T07:32:11;100966.00;;;9.47;71.67
18755;BME280;35061;47.664;9.166;2023-04-25T07:34:41;100973.13;;;9.09;75.91
18755;BME280;35061;47.664;9.166;2023-04-25T07:37:09;100983.30;;;8.82;74.83
18755;BME280;35061;47.664;9.166;2023-04-25T07:39:37;100970.45;;;8.59;75.39
18755;BME280;35061;47.664;9.166;2023-04-25T07:42:05;100987.22;;;8.29;79.16
18755;BME280;35061;47.664;9.166;2023-04-25T07:44:35;100988.59;;;8.05;78.79
18755;BME280;35061;47.664;9.166;2023-04-25T07:47:06;100992.95;;;7.78;81.43
18755;BME280;35061;47.664;9.166;2023-04-25T07:49:37;100975.45;;;7.58;80.47
18755;BME280;35061;47.664;9.166;2023-04-25T07:52:06;100984.90;;;7.45;80.43
18755;BME280;35061;47.664;9.166;2023-04-25T07:54:34;100991.48;;;7.33;81.15
18755;BME280;35061;47.664;9.166;2023-04-25T07:57:02;100991.77;;;7.25;81.38
18755;BME280;35061;47.664;9.166;2023-04-25T07:59:30;101007.56;;;7.17;82.71
18755;BME280;35061;47.664;9.166;2023-04-25T08:01:58;101003.57;;;7.15;82.50
18755;BME280;35061;47.664;9.166;2023-04-25T08:04:26;101002.43;;;7.12;82.83
18755;BME280;35061;47.664;9.166;2023-04-25T08:06:54;101002.56;;;7.08;83.52
18755;BME280;35061;47.664;9.166;2023-04-25T08:09:22;101006.68;;;7.07;83.56
18755;BME280;35061;47.664;9.166;2023-04-25T08:11:50;101014.10;;;7.05;84.72
18755;BME280;35061;47.664;9.166;2023-04-25T08:14:18;101015.02;;;7.02;85.39
18755;BME280;35061;47.664;9.166;2023-04-25T08:16:46;101029.73;;;7.00;86.22
18755;BME280;35061;47.664;9.166;2023-04-25T08:19:14;101023.72;;;6.98;85.91
18755;BME280;35061;47.664;9.166;2023-04-25T08:21:42;101026.56;;;6.98;87.12
18755;BME280;35061;47.664;9.166;2023-04-25T08:24:10;101024.96;;;6.97;87.58
18755;BME280;35061;47.664;9.166;2023-04-25T08:26:38;101029.87;;;6.96;89.43
18755;BME280;35061;47.664;9.166;2023-04-25T08:29:07;101025.71;;;6.88;89.34
18755;BME280;35061;47.664;9.166;2023-04-25T08:31:35;101037.55;;;6.87;89.15
18755;BME280;35061;47.664;9.166;2023-04-25T08:34:03;101033.10;;;6.86;90.41
18755;BME280;35061;47.664;9.166;2023-04-25T08:36:31;101035.48;;;6.87;89.78
18755;BME280;35061;47.664;9.166;2023-04-25T08:39:05;101039.61;;;6.86;89.96
18755;BME280;35061;47.664;9.166;2023-04-25T08:41:34;101036.27;;;6.88;90.11
18755;BME280;35061;47.664;9.166;2023-04-25T08:44:05;101038.07;;;6.94;90.08
18755;BME280;35061;47.664;9.166;2023-04-25T08:46:35;101039.09;;;7.01;90.01
18755;BME280;35061;47.664;9.166;2023-04-25T08:49:05;101052.36;;;7.04;90.14
18755;BME280;35061;47.664;9.166;2023-04-25T08:51:34;101051.48;;;7.07;90.08
18755;BME280;35061;47.664;9.166;2023-04-25T08:54:09;101059.66;;;7.05;90.14
18755;BME280;35061;47.664;9.166;2023-04-25T08:56:44;101061.75;;;7.04;90.60
18755;BME280;35061;47.664;9.166;2023-04-25T08:59:12;101068.19;;;7.05;91.24
18755;BME280;35061;47.664;9.166;2023-04-25T09:01:40;101063.77;;;7.04;90.52
18755;BME280;35061;47.664;9.166;2023-04-25T09:04:08;101065.34;;;7.05;90.17
18755;BME280;35061;47.664;9.166;2023-04-25T09:06:37;101064.92;;;7.06;90.61
18755;BME280;35061;47.664;9.166;2023-04-25T09:09:06;101074.11;;;7.10;90.20
18755;BME280;35061;47.664;9.166;2023-04-25T09:11:36;101079.21;;;7.16;89.90
18755;BME280;35061;47.664;9.166;2023-04-25T09:14:18;101085.26;;;7.18;89.75
18755;BME280;35061;47.664;9.166;2023-04-25T09:19:28;101091.47;;;7.25;91.10
18755;BME280;35061;47.664;9.166;2023-04-25T09:22:07;101095.46;;;7.28;90.33
18755;BME280;35061;47.664;9.166;2023-04-25T09:24:39;101098.37;;;7.37;90.37
18755;BME280;35061;47.664;9.166;2023-04-25T09:27:13;101103.80;;;7.45;90.20
18755;BME280;35061;47.664;9.166;2023-04-25T09:29:45;101109.09;;;7.56;89.76
18755;BME280;35061;47.664;9.166;2023-04-25T09:32:22;101118.52;;;7.65;89.32
18755;BME280;35061;47.664;9.166;2023-04-25T09:34:52;101118.55;;;7.75;89.21
18755;BME280;35061;47.664;9.166;2023-04-25T09:37:22;101121.13;;;7.82;88.03
18755;BME280;35061;47.664;9.166;2023-04-25T09:39:58;101116.42;;;7.88;87.68
18755;BME280;35061;47.664;9.166;2023-04-25T09:42:28;101115.15;;;7.89;86.41
18755;BME280;35061;47.664;9.166;2023-04-25T09:45:00;101127.51;;;7.95;86.29
18755;BME280;35061;47.664;9.166;2023-04-25T09:47:29;101126.79;;;8.04;86.38
18755;BME280;35061;47.664;9.166;2023-04-25T09:49:57;101130.74;;;8.07;85.27
18755;BME280;35061;47.664;9.166;2023-04-25T09:52:26;101126.82;;;8.14;85.44
18755;BME280;35061;47.664;9.166;2023-04-25T09:54:54;101128.75;;;8.17;84.05
18755;BME280;35061;47.664;9.166;2023-04-25T09:57:23;101129.37;;;8.21;84.47
18755;BME280;35061;47.664;9.166;2023-04-25T09:59:53;101136.56;;;8.35;84.19
18755;BME280;35061;47.664;9.166;2023-04-25T10:02:23;101136.59;;;8.44;84.04
18755;BME280;35061;47.664;9.166;2023-04-25T10:04:54;101133.36;;;8.55;83.38
18755;BME280;35061;47.664;9.166;2023-04-25T10:07:30;101139.57;;;8.72;82.94
18755;BME280;35061;47.664;9.166;2023-04-25T10:10:00;101134.05;;;8.78;80.88
18755;BME280;35061;47.664;9.166;2023-04-25T10:12:32;101137.05;;;8.93;81.30
18755;BME280;35061;47.664;9.166;2023-04-25T10:15:00;101146.57;;;8.99;79.76
18755;BME280;35061;47.664;9.166;2023-04-25T10:17:31;101136.11;;;8.96;77.02
18755;BME280;35061;47.664;9.166;2023-04-25T10:20:02;101135.16;;;8.99;77.49
18755;BME280;35061;47.664;9.166;2023-04-25T10:22:34;101137.38;;;9.04;78.35
18755;BME280;35061;47.664;9.166;2023-04-25T10:25:04;101143.73;;;9.08;77.33
18755;BME280;35061;47.664;9.166;2023-04-25T10:27:34;101125.31;;;9.19;77.52
18755;BME280;35061;47.664;9.166;2023-04-25T10:32:32;101123.74;;;9.37;76.39
18755;BME280;35061;47.664;9.166;2023-04-25T10:35:12;101121.49;;;9.50;76.39
18755;BME280;35061;47.664;9.166;2023-04-25T10:40:27;101123.02;;;9.79;74.70
18755;BME280;35061;47.664;9.166;2023-04-25T10:42:55;101122.21;;;9.88;74.98
18755;BME280;35061;47.664;9.166;2023-04-25T10:45:23;101123.45;;;9.96;74.79
18755;BME280;35061;47.664;9.166;2023-04-25T10:47:51;101120.87;;;10.08;73.56
18755;BME280;35061;47.664;9.166;2023-04-25T10:50:19;101116.26;;;10.10;72.28
18755;BME280;35061;47.664;9.166;2023-04-25T10:52:47;101118.28;;;10.19;73.23
18755;BME280;35061;47.664;9.166;2023-04-25T10:55:15;101109.95;;;10.30;73.38
18755;BME280;35061;47.664;9.166;2023-04-25T10:57:44;101117.44;;;10.28;72.90
18755;BME280;35061;47.664;9.166;2023-04-25T11:00:19;101122.90;;;10.16;71.35
18755;BME280;35061;47.664;9.166;2023-04-25T11:02:52;101136.11;;;10.14;71.61
18755;BME280;35061;47.664;9.166;2023-04-25T11:07:54;101127.21;;;10.12;71.80
18755;BME280;35061;47.664;9.166;2023-04-25T11:10:33;101127.87;;;10.07;72.02
18755;BME280;35061;47.664;9.166;2023-04-25T11:13:04;101121.98;;;10.10;72.87
18755;BME280;35061;47.664;9.166;2023-04-25T11:15:32;101133.36;;;10.19;73.22
18755;BME280;35061;47.664;9.166;2023-04-25T11:18:00;101134.60;;;10.28;72.84
18755;BME280;35061;47.664;9.166;2023-04-25T11:20:29;101127.87;;;10.40;72.81
18755;BME280;35061;47.664;9.166;2023-04-25T11:22:58;101129.77;;;10.53;72.58
18755;BME280;35061;47.664;9.166;2023-04-25T11:25:29;101134.93;;;10.64;70.87
18755;BME280;35061;47.664;9.166;2023-04-25T11:28:00;101128.06;;;10.70;69.39
18755;BME280;35061;47.664;9.166;2023-04-25T11:30:29;101128.84;;;10.71;69.22
18755;BME280;35061;47.664;9.166;2023-04-25T11:32:58;101122.70;;;10.63;68.68
18755;BME280;35061;47.664;9.166;2023-04-25T11:35:26;101117.14;;;10.59;69.27
18755;BME280;35061;47.664;9.166;2023-04-25T11:37:54;101107.27;;;10.60;69.43
18755;BME280;35061;47.664;9.166;2023-04-25T11:40:22;101116.36;;;10.59;68.44
18755;BME280;35061;47.664;9.166;2023-04-25T11:42:50;101118.35;;;10.43;67.07
18755;BME280;35061;47.664;9.166;2023-04-25T11:45:22;101117.11;;;10.35;67.54
18755;BME280;35061;47.664;9.166;2023-04-25T11:47:50;101123.95;;;10.38;67.65
18755;BME280;35061;47.664;9.166;2023-04-25T11:50:19;101124.34;;;10.55;68.46
18755;BME280;35061;47.664;9.166;2023-04-25T11:52:47;101132.31;;;10.75;67.78
18755;BME280;35061;47.664;9.166;2023-04-25T11:55:17;101125.77;;;10.84;67.30
18755;BME280;35061;47.664;9.166;2023-04-25T11:57:49;101122.93;;;10.99;66.73
18755;BME280;35061;47.664;9.166;2023-04-25T12:00:21;101125.64;;;11.17;67.07
18755;BME280;35061;47.664;9.166;2023-04-25T12:02:53;101127.67;;;11.26;66.49
18755;BME280;35061;47.664;9.166;2023-04-25T12:05:27;101131.20;;;11.21;65.20
18755;BME280;35061;47.664;9.166;2023-04-25T12:08:15;101127.96;;;11.28;64.69
18755;BME280;35061;47.664;9.166;2023-04-25T12:10:45;101126.88;;;11.41;64.42
18755;BME280;35061;47.664;9.166;2023-04-25T12:13:22;101118.28;;;11.41;62.84
18755;BME280;35061;47.664;9.166;2023-04-25T12:15:51;101133.91;;;11.40;63.10
18755;BME280;35061;47.664;9.166;2023-04-25T12:18:20;101142.58;;;11.30;63.99
18755;BME280;35061;47.664;9.166;2023-04-25T12:20:49;101157.98;;;11.18;64.69
18755;BME280;35061;47.664;9.166;2023-04-25T12:23:25;101158.84;;;11.09;64.95
18755;BME280;35061;47.664;9.166;2023-04-25T12:25:54;101159.81;;;11.06;65.66
18755;BME280;35061;47.664;9.166;2023-04-25T12:28:24;101165.54;;;11.06;66.41
18755;BME280;35061;47.664;9.166;2023-04-25T12:33:28;101173.74;;;10.65;70.03
18755;BME280;35061;47.664;9.166;2023-04-25T12:35:57;101183.75;;;10.36;71.52
18755;BME280;35061;47.664;9.166;2023-04-25T12:38:30;101179.08;;;10.04;72.40
18755;BME280;35061;47.664;9.166;2023-04-25T12:40:58;101171.95;;;9.90;73.45
18755;BME280;35061;47.664;9.166;2023-04-25T12:43:26;101176.85;;;9.90;73.61
18755;BME280;35061;47.664;9.166;2023-04-25T12:45:55;101177.96;;;9.93;74.44
18755;BME280;35061;47.664;9.166;2023-04-25T12:48:23;101170.15;;;10.02;74.16
18755;BME280;35061;47.664;9.166;2023-04-25T12:50:52;101177.27;;;10.16;73.72
18755;BME280;35061;47.664;9.166;2023-04-25T12:53:21;101173.25;;;10.32;73.23
18755;BME280;35061;47.664;9.166;2023-04-25T12:55:50;101173.55;;;10.44;71.98
18755;BME280;35061;47.664;9.166;2023-04-25T12:58:19;101167.89;;;10.59;71.71
18755;BME280;35061;47.664;9.166;2023-04-25T13:00:47;101178.03;;;10.69;71.32
18755;BME280;35061;47.664;9.166;2023-04-25T13:03:16;101178.78;;;10.79;71.03
18755;BME280;35061;47.664;9.166;2023-04-25T13:05:44;101160.14;;;10.84;70.22
18755;BME280;35061;47.664;9.166;2023-04-25T13:08:12;101174.59;;;10.89;70.18
18755;BME280;35061;47.664;9.166;2023-04-25T13:10:40;101168.97;;;10.95;69.59
18755;BME280;35061;47.664;9.166;2023-04-25T13:13:08;101160.99;;;10.99;69.45
18755;BME280;35061;47.664;9.166;2023-04-25T13:15:36;101157.46;;;11.05;69.09
18755;BME280;35061;47.664;9.166;2023-04-25T13:18:04;101163.70;;;11.18;68.91
18755;BME280;35061;47.664;9.166;2023-04-25T13:20:35;101168.28;;;11.25;67.14